Time;durP1;ratioP1;P1;durP2;ratioP2;P2;SDS_P1;SDS_P2;PMS_P1;PMS_P2;Temp;Humidity;BMP_temperature;BMP_pressure;BME280_temperature;BME280_humidity;BME280_pressure;Samples;Min_cycle;Max_cycle;Signal;HPM_P1;HPM_P2
2022/08/09 00:00:20;;;;;;;5.33;4.83;;;;;;;25.85;100.00;101580.97;2071435;28;20182;-64
2022/08/09 00:01:20;;;;;;;8.37;5.00;;;;;;;25.87;100.00;101577.63;2064834;28;20573;-64
2022/08/09 00:02:21;;;;;;;8.13;5.10;;;;;;;25.88;100.00;101579.16;2065458;28;20269;-64
2022/08/09 00:03:21;;;;;;;7.93;4.90;;;;;;;25.92;100.00;101580.50;2065012;28;20296;-65
2022/08/09 00:04:22;;;;;;;6.30;4.80;;;;;;;25.42;100.00;101510.75;2064737;28;20322;-65
2022/08/09 00:05:23;;;;;;;6.57;5.00;;;;;;;25.79;100.00;101573.75;2065091;28;20208;-64
2022/08/09 00:06:24;;;;;;;7.83;5.30;;;;;;;25.83;100.00;101588.44;2064666;28;20212;-64
2022/08/09 00:07:24;;;;;;;5.70;4.40;;;;;;;25.89;100.00;101590.00;2064323;28;20664;-64
2022/08/09 00:08:25;;;;;;;7.27;5.27;;;;;;;25.90;100.00;101590.81;2065084;28;20566;-64
2022/08/09 00:09:25;;;;;;;7.50;5.00;;;;;;;25.64;100.00;101567.56;2064484;28;20696;-64
2022/08/09 00:10:26;;;;;;;7.10;5.00;;;;;;;25.85;100.00;101592.31;2065436;28;20299;-64
2022/08/09 00:11:28;;;;;;;7.33;5.43;;;;;;;25.85;100.00;101591.56;2065167;28;20209;-64
2022/08/09 00:12:28;;;;;;;5.87;4.83;;;;;;;25.65;100.00;101577.59;2064716;28;20544;-64
2022/08/09 00:13:29;;;;;;;7.17;5.07;;;;;;;25.80;100.00;101586.66;2070758;28;20228;-65
2022/08/09 00:14:29;;;;;;;7.83;4.83;;;;;;;25.23;100.00;101501.16;2063967;28;20285;-64
2022/08/09 00:15:30;;;;;;;7.33;4.73;;;;;;;25.68;100.00;101563.16;2064328;28;20244;-64
2022/08/09 00:16:30;;;;;;;8.23;5.67;;;;;;;25.38;100.00;101541.44;2069890;28;20264;-64
2022/08/09 00:17:31;;;;;;;7.53;4.90;;;;;;;25.60;100.00;101579.16;2065234;28;20189;-64
2022/08/09 00:18:33;;;;;;;6.43;4.60;;;;;;;25.67;100.00;101575.03;2064002;28;20182;-64
2022/08/09 00:19:34;;;;;;;6.37;4.87;;;;;;;25.71;100.00;101575.53;2064528;28;20773;-64
2022/08/09 00:20:34;;;;;;;7.67;5.10;;;;;;;25.68;100.00;101568.03;2064921;28;20689;-64
2022/08/09 00:21:35;;;;;;;7.67;4.83;;;;;;;25.62;100.00;101570.13;2062364;28;20288;-65
2022/08/09 00:22:36;;;;;;;6.70;4.53;;;;;;;25.81;100.00;101580.47;2059087;28;20242;-64
2022/08/09 00:23:37;;;;;;;5.93;5.03;;;;;;;25.43;100.00;101529.34;2068735;28;20200;-64
2022/08/09 00:24:37;;;;;;;7.20;5.00;;;;;;;25.47;100.00;101547.66;2069457;28;20198;-65
2022/08/09 00:25:38;;;;;;;7.00;4.60;;;;;;;25.52;100.00;101551.78;2064683;28;20651;-64
2022/08/09 00:26:38;;;;;;;6.47;5.30;;;;;;;25.80;100.00;101578.16;2065122;28;20217;-65
2022/08/09 00:27:39;;;;;;;6.03;5.33;;;;;;;25.49;100.00;101538.63;2073235;28;20661;-65
2022/08/09 00:28:39;;;;;;;6.40;5.40;;;;;;;25.68;100.00;101565.22;2065211;28;20687;-65
2022/08/09 00:29:40;;;;;;;8.30;5.00;;;;;;;25.21;100.00;101487.47;2064909;28;20241;-65
2022/08/09 00:30:40;;;;;;;9.73;5.07;;;;;;;25.59;100.00;101537.84;2068805;28;20194;-65
2022/08/09 00:31:41;;;;;;;6.87;4.87;;;;;;;25.81;100.00;101560.59;2068258;28;20224;-65
2022/08/09 00:32:41;;;;;;;7.27;5.37;;;;;;;25.83;100.00;101562.91;2064797;28;20194;-65
2022/08/09 00:33:42;;;;;;;6.13;5.07;;;;;;;25.86;100.00;101565.50;2064760;28;20564;-65
2022/08/09 00:34:43;;;;;;;6.73;5.57;;;;;;;25.84;100.00;101564.47;2064350;28;20205;-65
2022/08/09 00:35:44;;;;;;;6.33;4.70;;;;;;;25.61;100.00;101518.25;2064375;28;20652;-65
2022/08/09 00:36:44;;;;;;;8.33;4.57;;;;;;;25.80;100.00;101533.47;2064536;28;20230;-65
2022/08/09 00:37:45;;;;;;;8.23;4.90;;;;;;;25.81;100.00;101535.03;2064650;28;20201;-65
2022/08/09 00:38:45;;;;;;;6.17;4.93;;;;;;;25.76;100.00;101530.13;2070581;28;20190;-65
2022/08/09 00:39:46;;;;;;;6.80;5.17;;;;;;;25.86;100.00;101550.53;2059356;28;20286;-65
2022/08/09 00:40:47;;;;;;;7.37;5.33;;;;;;;25.83;100.00;101540.97;2055273;28;20687;-65
2022/08/09 00:41:48;;;;;;;8.17;4.83;;;;;;;25.83;100.00;101548.69;2064675;28;20356;-65
2022/08/09 00:42:49;;;;;;;10.43;5.00;;;;;;;25.84;100.00;101553.13;2066524;28;20656;-65
2022/08/09 00:43:50;;;;;;;6.50;5.10;;;;;;;25.81;100.00;101557.75;2063654;28;20574;-65
2022/08/09 00:44:50;;;;;;;7.47;5.30;;;;;;;25.81;100.00;101560.59;2064463;28;20181;-65
2022/08/09 00:45:51;;;;;;;7.80;5.40;;;;;;;25.80;100.00;101561.88;2064845;28;20198;-64
2022/08/09 00:46:51;;;;;;;7.90;5.30;;;;;;;25.79;100.00;101551.81;2064062;28;20288;-65
2022/08/09 00:47:52;;;;;;;7.07;5.00;;;;;;;25.75;100.00;101548.44;2069846;28;20194;-65
2022/08/09 00:48:52;;;;;;;6.20;5.60;;;;;;;25.77;100.00;101554.41;2068402;28;20208;-66
2022/08/09 00:49:53;;;;;;;6.60;5.50;;;;;;;25.70;100.00;101552.03;2067388;28;20292;-65
2022/08/09 00:50:54;;;;;;;6.37;5.27;;;;;;;25.65;100.00;101535.78;2072231;28;20189;-66
2022/08/09 00:51:55;;;;;;;8.10;5.60;;;;;;;25.60;100.00;101550.78;2072566;28;20201;-65
2022/08/09 00:52:57;;;;;;;9.63;5.63;;;;;;;25.26;100.00;101495.25;2073254;28;20320;-64
2022/08/09 00:53:57;;;;;;;6.57;5.37;;;;;;;25.60;100.00;101550.00;2072654;28;20695;-64
2022/08/09 00:54:59;;;;;;;6.90;5.50;;;;;;;25.32;100.00;101518.72;2065634;28;20593;-64
2022/08/09 00:56:01;;;;;;;7.20;5.33;;;;;;;25.47;100.00;101552.53;2070376;28;20221;-65
2022/08/09 00:57:01;;;;;;;7.53;5.17;;;;;;;25.19;100.00;101497.78;2067341;28;20661;-65
2022/08/09 00:58:02;;;;;;;9.20;5.87;;;;;;;25.51;100.00;101536.81;2064554;28;20228;-65
2022/08/09 00:59:03;;;;;;;6.23;5.63;;;;;;;25.21;100.00;101498.03;2064679;28;20258;-65
2022/08/09 01:00:08;;;;;;;6.20;5.43;;;;;;;24.98;100.00;101466.00;2066200;28;20185;-65
2022/08/09 01:01:16;;;;;;;6.37;5.67;;;;;;;25.42;100.00;101531.38;2071670;28;20162;-65
2022/08/09 01:02:23;;;;;;;6.20;4.93;;;;;;;25.35;100.00;101526.22;2056640;28;20179;-65
2022/08/09 01:03:34;;;;;;;8.37;5.23;;;;;;;25.34;100.00;101518.22;2064279;28;20285;-65
2022/08/09 01:05:04;;;;;;;10.03;5.57;;;;;;;25.34;100.00;101530.34;2064123;28;20181;-65
2022/08/09 01:06:11;;;;;;;7.67;5.37;;;;;;;25.34;100.00;101535.25;2067900;28;20575;-64
2022/08/09 01:07:51;;;;;;;6.70;5.40;;;;;;;25.08;100.00;101512.69;2068604;28;20576;-64
2022/08/09 01:09:06;;;;;;;6.43;5.57;;;;;;;25.21;100.00;101543.44;2072200;28;20221;-64
2022/08/09 01:10:29;;;;;;;7.27;5.63;;;;;;;25.14;100.00;101539.03;2065057;28;20560;-64
2022/08/09 01:11:32;;;;;;;7.17;6.10;;;;;;;25.11;100.00;101548.56;2064674;28;20225;-65
2022/08/09 01:12:49;;;;;;;8.53;5.97;;;;;;;25.05;100.00;101561.97;2055309;28;20310;-64
2022/08/09 01:14:00;;;;;;;11.90;6.30;;;;;;;24.97;100.00;101560.13;2064006;28;20189;-64
2022/08/09 01:15:07;;;;;;;7.07;5.90;;;;;;;24.24;100.00;101470.34;2065128;28;20232;-65
2022/08/09 01:16:10;;;;;;;9.00;6.60;;;;;;;24.05;100.00;101449.38;2070780;28;20563;-65
2022/08/09 01:17:21;;;;;;;8.93;6.30;;;;;;;24.76;100.00;101555.88;2064232;28;20174;-65
2022/08/09 01:18:29;;;;;;;7.33;6.47;;;;;;;24.73;100.00;101556.91;2072021;28;20659;-65
2022/08/09 01:19:41;;;;;;;12.27;6.63;;;;;;;24.70;100.00;101555.88;2065462;28;20171;-64
2022/08/09 01:20:53;;;;;;;9.03;7.07;;;;;;;24.64;100.00;101563.59;2071245;28;20161;-65
2022/08/09 01:22:10;;;;;;;11.67;6.90;;;;;;;24.52;100.00;101567.59;2065884;28;20182;-65
2022/08/09 01:23:11;;;;;;;11.00;6.60;;;;;;;24.43;100.00;101584.81;2063555;28;20188;-65
2022/08/09 01:24:23;;;;;;;11.70;6.30;;;;;;;24.35;100.00;101577.25;2063772;28;20182;-65
2022/08/09 01:26:03;;;;;;;8.97;6.60;;;;;;;24.19;100.00;101592.09;2066144;28;20650;-65
2022/08/09 01:27:04;;;;;;;7.10;5.97;;;;;;;24.22;100.00;101586.22;2057026;28;20202;-65
2022/08/09 01:28:06;;;;;;;9.33;6.67;;;;;;;24.26;100.00;101583.13;2067448;28;20229;-65
2022/08/09 01:29:11;;;;;;;7.40;5.97;;;;;;;24.29;100.00;101590.63;2064246;28;20218;-64
2022/08/09 01:30:12;;;;;;;8.83;6.37;;;;;;;24.26;100.00;101588.81;2067846;28;20193;-64
2022/08/09 01:31:20;;;;;;;9.07;6.43;;;;;;;24.22;100.00;101596.75;2070156;28;20403;-64
2022/08/09 01:32:22;;;;;;;8.73;6.47;;;;;;;24.24;100.00;101591.34;2063796;28;20170;-65
2022/08/09 01:33:28;;;;;;;7.33;6.13;;;;;;;23.95;100.00;101549.19;2062902;28;20187;-65
2022/08/09 01:34:31;;;;;;;7.77;6.10;;;;;;;24.29;100.00;101593.44;2055928;28;20591;-65
2022/08/09 01:35:46;;;;;;;8.70;6.70;;;;;;;24.28;100.00;101598.34;2063639;28;20202;-64
2022/08/09 01:36:48;;;;;;;9.87;6.97;;;;;;;23.78;100.00;101534.06;2063961;28;20718;-65
2022/08/09 01:37:52;;;;;;;7.67;6.73;;;;;;;24.16;100.00;101593.09;2064139;28;20265;-65
2022/08/09 01:38:55;;;;;;;8.00;6.17;;;;;;;24.03;100.00;101593.53;2064832;28;20186;-65
2022/08/09 01:40:01;;;;;;;7.10;5.80;;;;;;;24.19;100.00;101597.75;2064695;28;20192;-64
2022/08/09 01:41:35;;;;;;;7.80;6.50;;;;;;;24.22;100.00;101589.03;2064156;28;20197;-65
2022/08/09 01:42:37;;;;;;;7.40;6.67;;;;;;;23.71;100.00;101503.41;2055264;28;20187;-64
2022/08/09 01:43:41;;;;;;;7.40;6.60;;;;;;;24.02;100.00;101557.19;2061119;28;20209;-65
2022/08/09 01:44:43;;;;;;;7.53;6.03;;;;;;;23.47;100.00;101457.66;2055224;28;20273;-64
2022/08/09 01:45:45;;;;;;;7.67;6.67;;;;;;;24.37;100.00;101588.88;2063671;28;20182;-65
2022/08/09 01:46:47;;;;;;;8.10;6.57;;;;;;;24.38;100.00;101588.38;2063649;28;20252;-64
2022/08/09 01:47:49;;;;;;;7.03;6.33;;;;;;;24.42;100.00;101599.47;2070887;28;20191;-64
2022/08/09 01:48:51;;;;;;;9.60;7.27;;;;;;;24.38;100.00;101596.88;2066560;28;20201;-65
2022/08/09 01:49:56;;;;;;;7.07;6.37;;;;;;;24.29;100.00;101579.28;2064482;28;20224;-65
2022/08/09 01:50:58;;;;;;;7.60;6.87;;;;;;;24.31;100.00;101569.00;2064453;28;20204;-64
2022/08/09 01:52:02;;;;;;;7.87;6.97;;;;;;;24.12;100.00;101545.19;2064253;28;20281;-65
2022/08/09 01:53:05;;;;;;;10.30;7.13;;;;;;;24.54;100.00;101598.25;2055740;28;20290;-65
2022/08/09 01:54:07;;;;;;;9.87;6.60;;;;;;;24.26;100.00;101558.41;2055451;28;20252;-64
2022/08/09 01:55:09;;;;;;;11.27;6.70;;;;;;;24.54;100.00;101610.38;2063703;28;20182;-64
2022/08/09 01:56:12;;;;;;;9.87;6.30;;;;;;;24.54;100.00;101606.75;2063821;28;20568;-65
2022/08/09 01:57:19;;;;;;;7.87;7.10;;;;;;;24.58;100.00;101615.81;2064136;28;20255;-64
2022/08/09 01:58:20;;;;;;;8.90;6.80;;;;;;;24.38;100.00;101579.88;2064771;28;20579;-65
2022/08/09 01:59:22;;;;;;;8.57;6.50;;;;;;;24.27;100.00;101557.16;2064398;28;20269;-64
2022/08/09 02:00:23;;;;;;;9.37;6.30;;;;;;;24.59;100.00;101606.03;2064437;28;20261;-64
2022/08/09 02:01:25;;;;;;;8.53;6.60;;;;;;;24.57;100.00;101600.84;2060985;28;20201;-64
2022/08/09 02:02:29;;;;;;;7.10;6.43;;;;;;;24.50;100.00;101594.88;2063749;28;20201;-64
2022/08/09 02:03:34;;;;;;;8.80;6.53;;;;;;;24.11;100.00;101523.03;2067062;28;20193;-64
2022/08/09 02:04:38;;;;;;;7.23;6.20;;;;;;;24.21;100.00;101522.31;2068326;28;20788;-64
2022/08/09 02:05:41;;;;;;;8.17;6.00;;;;;;;24.62;100.00;101579.53;2063935;28;20248;-64
2022/08/09 02:08:05;;;;;;;8.00;5.67;;;;;;;24.62;100.00;101579.53;2069352;28;20206;-64
2022/08/09 02:09:07;;;;;;;7.87;5.27;;;;;;;24.16;100.00;101510.97;2066653;28;20743;-65
2022/08/09 02:10:21;;;;;;;6.77;5.33;;;;;;;24.12;100.00;101499.09;2070725;28;20269;-64
2022/08/09 02:11:24;;;;;;;6.97;5.33;;;;;;;24.63;100.00;101570.53;2064125;28;20703;-65
2022/08/09 02:12:26;;;;;;;6.03;5.40;;;;;;;24.43;100.00;101538.69;2064078;28;20233;-65
2022/08/09 02:13:30;;;;;;;7.00;5.30;;;;;;;23.96;100.00;101460.88;2064167;28;20574;-65
2022/08/09 02:14:30;;;;;;;6.07;5.47;;;;;;;24.59;100.00;101567.16;2064045;28;20182;-64
2022/08/09 02:15:38;;;;;;;8.00;5.40;;;;;;;24.63;100.00;101567.69;2071641;28;20206;-64
2022/08/09 02:16:40;;;;;;;7.43;5.40;;;;;;;24.22;100.00;101512.56;2071929;28;20221;-64
2022/08/09 02:17:43;;;;;;;9.53;4.97;;;;;;;24.37;100.00;101538.66;2065378;28;20190;-64
2022/08/09 02:18:43;;;;;;;8.20;5.03;;;;;;;24.26;100.00;101520.81;2064017;28;20205;-64
2022/08/09 02:19:44;;;;;;;9.50;5.10;;;;;;;24.57;100.00;101564.00;2076163;28;20243;-64
2022/08/09 02:20:50;;;;;;;6.83;4.87;;;;;;;24.49;100.00;101562.94;2079301;28;20653;-65
2022/08/09 02:21:57;;;;;;;5.73;5.20;;;;;;;24.50;100.00;101564.50;2069172;28;20206;-65
2022/08/09 02:23:08;;;;;;;9.83;5.53;;;;;;;24.55;100.00;101569.41;2064073;28;20202;-64
2022/08/09 02:24:13;;;;;;;5.63;4.90;;;;;;;24.51;100.00;101570.94;2058942;28;20198;-64
2022/08/09 02:25:22;;;;;;;6.77;5.40;;;;;;;24.20;100.00;101520.03;2062870;28;20329;-64
2022/08/09 02:26:26;;;;;;;7.10;5.47;;;;;;;24.16;100.00;101540.06;2069197;28;20198;-65
2022/08/09 02:27:30;;;;;;;7.17;5.17;;;;;;;24.25;100.00;101536.28;2065597;28;20183;-64
2022/08/09 02:28:44;;;;;;;6.47;5.03;;;;;;;24.54;100.00;101582.03;2063656;28;20671;-64
2022/08/09 02:29:49;;;;;;;9.43;5.10;;;;;;;24.63;100.00;101607.38;2063067;28;20659;-65
2022/08/09 02:30:59;;;;;;;7.40;5.10;;;;;;;24.64;100.00;101591.91;2061197;28;20685;-65
2022/08/09 02:32:02;;;;;;;6.40;5.23;;;;;;;24.61;100.00;101603.50;2063426;28;20166;-64
2022/08/09 02:33:04;;;;;;;5.93;5.10;;;;;;;24.53;100.00;101591.03;2062968;28;20236;-65
2022/08/09 02:34:20;;;;;;;6.13;5.40;;;;;;;24.64;100.00;101608.94;2060699;28;20182;-65
2022/08/09 02:35:24;;;;;;;7.03;5.27;;;;;;;24.60;100.00;101604.75;2071208;28;20166;-65
2022/08/09 02:36:34;;;;;;;5.90;5.10;;;;;;;24.64;100.00;101600.44;2063680;28;20284;-64
2022/08/09 02:37:38;;;;;;;11.33;4.93;;;;;;;24.66;100.00;101602.75;2062345;28;20305;-65
2022/08/09 02:38:47;;;;;;;8.13;5.53;;;;;;;24.65;100.00;101604.81;2056445;28;20266;-65
2022/08/09 02:39:54;;;;;;;9.27;5.87;;;;;;;24.71;100.00;101599.94;2064677;28;20656;-64
2022/08/09 02:41:00;;;;;;;6.33;5.63;;;;;;;24.42;100.00;101571.91;2064663;28;20265;-64
2022/08/09 02:42:15;;;;;;;7.60;5.47;;;;;;;24.69;100.00;101591.19;2072695;28;20170;-64
2022/08/09 02:43:19;;;;;;;7.10;5.53;;;;;;;24.69;100.00;101596.06;2064285;28;20171;-65
2022/08/09 02:44:25;;;;;;;7.43;5.77;;;;;;;24.40;100.00;101546.13;2065702;28;20179;-64
2022/08/09 02:45:31;;;;;;;7.63;5.90;;;;;;;24.41;100.00;101542.03;2074284;28;20173;-65
2022/08/09 02:46:34;;;;;;;7.87;5.90;;;;;;;24.50;100.00;101553.16;2065054;28;20230;-65
2022/08/09 02:47:37;;;;;;;6.80;5.93;;;;;;;24.77;100.00;101594.31;2072434;28;20578;-64
2022/08/09 02:48:39;;;;;;;8.87;6.10;;;;;;;24.35;100.00;101532.72;2073703;28;20248;-65
2022/08/09 02:49:48;;;;;;;6.77;5.70;;;;;;;24.82;100.00;101597.16;2068366;28;20218;-65
2022/08/09 02:50:52;;;;;;;6.83;5.40;;;;;;;24.13;100.00;101492.16;2071003;28;20408;-65
2022/08/09 02:51:56;;;;;;;6.57;5.53;;;;;;;24.50;100.00;101552.38;2073541;28;20228;-65
2022/08/09 02:53:01;;;;;;;7.93;5.60;;;;;;;24.21;100.00;101499.66;2064806;28;20696;-64
2022/08/09 02:54:03;;;;;;;5.80;5.20;;;;;;;24.78;100.00;101587.34;2061689;28;20203;-64
2022/08/09 02:55:06;;;;;;;7.97;5.30;;;;;;;24.37;100.00;101538.66;2064535;28;20194;-64
2022/08/09 02:56:07;;;;;;;10.47;6.00;;;;;;;24.54;100.00;101587.72;2064107;28;20323;-65
2022/08/09 02:57:10;;;;;;;8.20;5.80;;;;;;;24.63;100.00;101596.03;2064289;28;20182;-65
2022/08/09 02:58:12;;;;;;;6.87;4.93;;;;;;;24.59;100.00;101586.22;2066011;28;20483;-64
2022/08/09 02:59:15;;;;;;;6.37;5.20;;;;;;;24.64;100.00;101593.97;2073879;28;20201;-64
2022/08/09 03:00:16;;;;;;;6.60;5.30;;;;;;;24.60;100.00;101597.03;2073095;28;20568;-64
2022/08/09 03:01:18;;;;;;;6.53;4.97;;;;;;;24.25;100.00;101550.44;2064995;28;20278;-64
2022/08/09 03:02:19;;;;;;;5.60;5.03;;;;;;;23.66;100.00;101456.03;2059723;28;20560;-64
2022/08/09 03:03:22;;;;;;;7.10;5.50;;;;;;;24.52;100.00;101592.31;2065639;28;20198;-64
2022/08/09 03:04:24;;;;;;;6.57;5.10;;;;;;;24.53;100.00;101591.81;2065213;28;20190;-65
2022/08/09 03:05:26;;;;;;;9.33;4.90;;;;;;;24.54;100.00;101592.59;2068130;28;20236;-64
2022/08/09 03:06:28;;;;;;;6.67;4.67;;;;;;;24.65;100.00;101595.50;2073056;28;20205;-65
2022/08/09 03:07:30;;;;;;;7.60;4.70;;;;;;;24.24;100.00;101529.03;2071184;28;20182;-65
2022/08/09 03:08:31;;;;;;;7.23;5.30;;;;;;;24.68;100.00;101595.31;2065995;28;20174;-65
2022/08/09 03:09:32;;;;;;;7.57;5.40;;;;;;;24.63;100.00;101587.53;2073844;28;20654;-65
2022/08/09 03:10:35;;;;;;;6.70;5.30;;;;;;;24.77;100.00;101603.56;2066658;28;20225;-65
2022/08/09 03:11:37;;;;;;;8.70;5.53;;;;;;;24.82;100.00;101602.06;2065677;28;20298;-65
2022/08/09 03:12:39;;;;;;;6.43;5.40;;;;;;;24.42;100.00;101548.47;2065519;28;20194;-64
2022/08/09 03:13:40;;;;;;;8.00;5.53;;;;;;;24.08;100.00;101498.56;2065336;28;20194;-65
2022/08/09 03:14:43;;;;;;;8.20;5.47;;;;;;;24.77;100.00;101595.06;2065087;28;20590;-65
2022/08/09 03:15:45;;;;;;;7.97;5.30;;;;;;;24.43;100.00;101545.13;2067499;28;20244;-65
2022/08/09 03:16:46;;;;;;;9.37;5.47;;;;;;;24.82;100.00;101597.16;2073125;28;20182;-65
2022/08/09 03:17:48;;;;;;;8.53;5.07;;;;;;;24.66;100.00;101568.75;2072377;28;20177;-65
2022/08/09 03:18:49;;;;;;;7.33;5.73;;;;;;;24.28;100.00;101516.19;2065668;28;20175;-65
2022/08/09 03:19:51;;;;;;;6.17;5.30;;;;;;;24.61;100.00;101570.25;2065314;28;20288;-65
2022/08/09 03:20:52;;;;;;;8.17;5.87;;;;;;;24.42;100.00;101543.56;2072175;28;20202;-64
2022/08/09 03:21:55;;;;;;;8.67;5.60;;;;;;;24.66;100.00;101563.06;2067715;28;20201;-65
2022/08/09 03:22:57;;;;;;;7.20;6.00;;;;;;;24.31;100.00;101506.69;2065274;28;20233;-64
2022/08/09 03:23:57;;;;;;;8.87;6.07;;;;;;;24.54;100.00;101545.19;2069032;28;20214;-64
2022/08/09 03:24:59;;;;;;;9.60;6.10;;;;;;;24.84;100.00;101586.09;2067336;28;20205;-64
2022/08/09 03:26:01;;;;;;;8.63;5.63;;;;;;;24.46;100.00;101532.03;2060462;28;20563;-65
2022/08/09 03:27:05;;;;;;;7.93;6.10;;;;;;;24.49;100.00;101531.78;2059302;28;20273;-64
2022/08/09 03:28:07;;;;;;;7.37;5.73;;;;;;;24.76;100.00;101592.72;2056333;28;20191;-65
2022/08/09 03:29:08;;;;;;;6.93;6.20;;;;;;;24.77;100.00;101585.81;2065166;28;20788;-64
2022/08/09 03:30:10;;;;;;;9.33;6.90;;;;;;;24.48;100.00;101561.41;2064349;28;20773;-64
2022/08/09 03:31:11;;;;;;;9.20;7.47;;;;;;;24.70;100.00;101589.09;2064763;28;20665;-65
2022/08/09 03:32:13;;;;;;;9.57;6.90;;;;;;;24.74;100.00;101586.81;2067744;28;20249;-65
2022/08/09 03:33:15;;;;;;;10.10;7.20;;;;;;;24.41;100.00;101535.59;2065402;28;20297;-65
2022/08/09 03:34:16;;;;;;;7.87;6.77;;;;;;;24.77;100.00;101586.56;2068693;28;20198;-64
2022/08/09 03:35:17;;;;;;;8.10;6.17;;;;;;;24.34;100.00;101527.56;2072720;28;20204;-65
2022/08/09 03:36:18;;;;;;;9.80;6.90;;;;;;;24.81;100.00;101592.00;2071070;28;20583;-65
2022/08/09 03:37:18;;;;;;;7.57;6.83;;;;;;;24.82;100.00;101587.91;2064552;28;20289;-65
2022/08/09 03:38:19;;;;;;;9.33;6.80;;;;;;;24.61;100.00;101573.09;2065632;28;20187;-64
2022/08/09 03:39:19;;;;;;;9.33;6.60;;;;;;;24.76;100.00;101593.53;2072463;28;20213;-64
2022/08/09 03:40:20;;;;;;;8.90;6.37;;;;;;;24.75;100.00;101589.16;2066954;28;20209;-64
2022/08/09 03:41:20;;;;;;;9.60;6.53;;;;;;;24.62;100.00;101582.38;2062164;28;20186;-64
2022/08/09 03:42:21;;;;;;;12.67;6.53;;;;;;;23.94;100.00;101483.28;2064624;28;20245;-64
2022/08/09 03:43:21;;;;;;;11.40;6.83;;;;;;;24.16;100.00;101528.72;2065174;28;20202;-65
2022/08/09 03:44:24;;;;;;;9.83;6.43;;;;;;;24.61;100.00;101603.50;2064880;28;20571;-65
2022/08/09 03:45:25;;;;;;;13.53;6.90;;;;;;;24.17;100.00;101538.00;2065343;28;20203;-64
2022/08/09 03:46:26;;;;;;;11.17;7.03;;;;;;;24.59;100.00;101606.03;2065067;28;20189;-64
2022/08/09 03:47:27;;;;;;;8.70;6.27;;;;;;;24.58;100.00;101602.47;2065080;28;20665;-64
2022/08/09 03:48:29;;;;;;;7.00;6.30;;;;;;;24.10;100.00;101527.91;2065159;28;20229;-65
2022/08/09 03:49:32;;;;;;;11.77;6.60;;;;;;;24.63;100.00;101601.72;2071075;28;20213;-64
2022/08/09 03:50:34;;;;;;;7.07;5.97;;;;;;;24.19;100.00;101547.56;2067771;28;20205;-65
2022/08/09 03:51:42;;;;;;;7.90;6.40;;;;;;;24.64;100.00;101606.09;2064937;28;20566;-65
2022/08/09 03:52:43;;;;;;;7.97;6.90;;;;;;;24.63;100.00;101593.22;2065170;28;20340;-65
2022/08/09 03:53:44;;;;;;;9.37;6.63;;;;;;;24.70;100.00;101603.28;2065061;28;20674;-65
2022/08/09 03:54:47;;;;;;;8.43;6.70;;;;;;;24.70;100.00;101594.78;2064801;28;20236;-64
2022/08/09 03:55:48;;;;;;;7.97;6.53;;;;;;;24.40;100.00;101551.03;2065778;28;20183;-65
2022/08/09 03:56:49;;;;;;;7.93;7.00;;;;;;;24.60;100.00;101576.41;2071824;28;20174;-65
2022/08/09 03:57:50;;;;;;;8.90;6.83;;;;;;;24.77;100.00;101597.16;2072845;28;20205;-65
2022/08/09 03:58:50;;;;;;;9.97;6.93;;;;;;;24.54;100.00;101562.19;2072110;28;20224;-64
2022/08/09 03:59:52;;;;;;;10.07;7.57;;;;;;;24.66;100.00;101580.84;2063731;28;20671;-65
2022/08/09 04:00:53;;;;;;;11.93;7.70;;;;;;;24.31;100.00;101532.16;2058921;28;20472;-65
2022/08/09 04:01:58;;;;;;;11.10;7.20;;;;;;;24.46;100.00;101551.84;2061099;28;20201;-65
2022/08/09 04:02:59;;;;;;;12.27;7.30;;;;;;;24.52;100.00;101566.81;2069144;28;20233;-65
2022/08/09 04:04:02;;;;;;;10.63;7.20;;;;;;;24.79;100.00;101600.25;2065034;28;20787;-65
2022/08/09 04:05:03;;;;;;;8.17;6.90;;;;;;;24.75;100.00;101596.84;2064706;28;20183;-65
2022/08/09 04:06:05;;;;;;;7.63;6.77;;;;;;;24.79;100.00;101620.09;2055823;28;20191;-64
2022/08/09 04:07:05;;;;;;;11.80;7.17;;;;;;;24.78;100.00;101598.69;2055894;28;20213;-65
2022/08/09 04:08:06;;;;;;;10.63;7.50;;;;;;;24.80;100.00;101599.75;2065541;28;20359;-65
2022/08/09 04:09:06;;;;;;;12.33;7.70;;;;;;;24.84;100.00;101599.50;2065032;28;20667;-65
2022/08/09 04:10:07;;;;;;;10.30;7.50;;;;;;;24.42;100.00;101535.06;2064694;28;20202;-64
2022/08/09 04:11:09;;;;;;;12.00;7.50;;;;;;;24.86;100.00;101603.38;2060976;28;20196;-65
2022/08/09 04:12:09;;;;;;;10.87;7.40;;;;;;;24.85;100.00;101603.88;2064426;28;20201;-64
2022/08/09 04:13:10;;;;;;;12.23;7.47;;;;;;;24.84;100.00;101605.94;2064859;28;20208;-64
2022/08/09 04:14:11;;;;;;;10.57;6.60;;;;;;;24.30;100.00;101529.88;2066860;28;20193;-64
2022/08/09 04:15:15;;;;;;;8.67;7.27;;;;;;;24.73;100.00;101596.59;2072111;28;20178;-64
2022/08/09 04:16:15;;;;;;;8.27;7.10;;;;;;;24.67;100.00;101596.56;2064622;28;20711;-64
2022/08/09 04:17:16;;;;;;;9.53;6.93;;;;;;;24.60;100.00;101585.72;2064805;28;20264;-64
2022/08/09 04:18:18;;;;;;;8.67;7.23;;;;;;;24.67;100.00;101595.81;2065114;28;20179;-64
2022/08/09 04:19:18;;;;;;;8.80;6.97;;;;;;;24.62;100.00;101600.13;2070124;28;20511;-64
2022/08/09 04:20:19;;;;;;;7.50;6.73;;;;;;;24.55;100.00;101596.97;2059261;28;20206;-64
2022/08/09 04:21:19;;;;;;;8.33;7.50;;;;;;;24.60;100.00;101608.38;2055975;28;20206;-64
2022/08/09 04:22:20;;;;;;;8.63;6.83;;;;;;;24.62;100.00;101605.03;2065042;28;20198;-64
2022/08/09 04:23:22;;;;;;;9.07;6.37;;;;;;;24.30;100.00;101555.38;2065894;28;20178;-65
2022/08/09 04:24:24;;;;;;;10.67;7.33;;;;;;;24.61;100.00;101597.84;2072254;28;20465;-64
2022/08/09 04:25:24;;;;;;;8.43;6.53;;;;;;;24.75;100.00;101617.50;2073416;28;20173;-65
2022/08/09 04:26:25;;;;;;;8.93;6.70;;;;;;;24.79;100.00;101617.25;2064683;28;20573;-64
2022/08/09 04:27:26;;;;;;;9.67;6.60;;;;;;;24.85;100.00;101623.72;2064576;28;20257;-64
2022/08/09 04:28:27;;;;;;;11.67;7.37;;;;;;;24.92;100.00;101620.44;2064822;28;20194;-64
2022/08/09 04:29:27;;;;;;;10.33;7.40;;;;;;;24.63;100.00;101550.69;2065049;28;20696;-65
2022/08/09 04:30:28;;;;;;;9.10;6.97;;;;;;;24.93;100.00;101608.56;2059025;28;20191;-64
2022/08/09 04:31:28;;;;;;;9.33;6.80;;;;;;;24.90;100.00;101591.78;2063362;28;20186;-64
2022/08/09 04:32:29;;;;;;;8.23;7.00;;;;;;;25.11;100.00;101618.69;2062973;28;20222;-65
2022/08/09 04:33:29;;;;;;;8.67;7.10;;;;;;;25.18;100.00;101621.06;2056313;28;20195;-64
2022/08/09 04:34:32;;;;;;;10.37;7.57;;;;;;;24.75;100.00;101538.13;2064874;28;20182;-64
2022/08/09 04:35:32;;;;;;;10.03;7.77;;;;;;;25.28;100.00;101619.59;2064705;28;20208;-64
2022/08/09 04:36:33;;;;;;;9.67;7.07;;;;;;;25.30;100.00;101623.47;2064526;28;20293;-64
2022/08/09 04:37:34;;;;;;;12.40;7.20;;;;;;;25.03;100.00;101578.69;2064123;28;20705;-65
2022/08/09 04:38:34;;;;;;;9.17;7.53;;;;;;;25.36;100.00;101620.63;2059907;28;20575;-64
2022/08/09 04:39:35;;;;;;;8.40;7.10;;;;;;;25.08;100.00;101568.66;2061424;28;20233;-64
2022/08/09 04:40:47;;;;;;;7.93;7.13;;;;;;;25.40;100.00;101606.97;2066463;28;20262;-64
2022/08/09 04:41:48;;;;;;;11.53;7.30;;;;;;;25.22;100.00;101573.34;2063273;28;20178;-64
2022/08/09 04:42:48;;;;;;;9.90;7.30;;;;;;;25.53;100.00;101621.47;2063887;28;20212;-64
2022/08/09 04:43:50;;;;;;;11.40;7.20;;;;;;;25.54;100.00;101606.75;2072310;28;20203;-64
2022/08/09 04:44:50;;;;;;;9.23;6.90;;;;;;;25.59;100.00;101611.66;2056064;28;20330;-64
2022/08/09 04:45:51;;;;;;;11.50;6.73;;;;;;;25.34;100.00;101572.88;2062787;28;20249;-64
2022/08/09 04:46:51;;;;;;;10.43;7.37;;;;;;;25.69;100.00;101620.72;2066253;28;20202;-65
2022/08/09 04:47:52;;;;;;;10.20;6.77;;;;;;;25.72;100.00;101609.09;2056043;28;20214;-65
2022/08/09 04:48:53;;;;;;;9.53;6.80;;;;;;;25.75;100.00;101607.31;2059886;28;20297;-64
2022/08/09 04:49:54;;;;;;;8.17;7.37;;;;;;;25.77;100.00;101616.06;2070054;28;20204;-64
2022/08/09 04:50:55;;;;;;;9.53;7.37;;;;;;;25.79;100.00;101622.03;2072663;28;20683;-64
2022/08/09 04:51:55;;;;;;;7.60;6.80;;;;;;;25.87;100.00;101614.53;2072409;28;20189;-65